sensor_id;sensor_type;location;lat;lon;timestamp;P1;durP1;ratioP1;P2;durP2;ratioP2
43519;SDS011;46848;51.980;5.918;2023-04-03T00:01:31;1.93;;;1.10;;
43519;SDS011;46848;51.980;5.918;2023-04-03T00:03:56;4.17;;;1.23;;
43519;SDS011;46848;51.980;5.918;2023-04-03T00:06:22;4.93;;;1.40;;
43519;SDS011;46848;51.980;5.918;2023-04-03T00:08:48;3.30;;;1.17;;
43519;SDS011;46848;51.980;5.918;2023-04-03T00:11:15;5.13;;;1.20;;
43519;SDS011;46848;51.980;5.918;2023-04-03T00:13:41;4.53;;;1.23;;
43519;SDS011;46848;51.980;5.918;2023-04-03T00:16:08;6.47;;;1.10;;
43519;SDS011;46848;51.980;5.918;2023-04-03T00:18:35;4.30;;;1.60;;
43519;SDS011;46848;51.980;5.918;2023-04-03T00:21:01;3.60;;;1.20;;
43519;SDS011;46848;51.980;5.918;2023-04-03T00:23:29;6.17;;;1.33;;
43519;SDS011;46848;51.980;5.918;2023-04-03T00:25:56;3.77;;;1.20;;
43519;SDS011;46848;51.980;5.918;2023-04-03T00:28:21;4.00;;;1.20;;
43519;SDS011;46848;51.980;5.918;2023-04-03T00:30:50;3.57;;;0.93;;
43519;SDS011;46848;51.980;5.918;2023-04-03T00:33:16;2.77;;;0.90;;
43519;SDS011;46848;51.980;5.918;2023-04-03T00:35:42;3.63;;;1.20;;
43519;SDS011;46848;51.980;5.918;2023-04-03T00:38:09;3.00;;;1.20;;
43519;SDS011;46848;51.980;5.918;2023-04-03T00:40:36;3.53;;;1.20;;
43519;SDS011;46848;51.980;5.918;2023-04-03T00:43:08;4.17;;;1.33;;
43519;SDS011;46848;51.980;5.918;2023-04-03T00:45:41;3.03;;;1.00;;
43519;SDS011;46848;51.980;5.918;2023-04-03T00:48:09;6.23;;;1.33;;
43519;SDS011;46848;51.980;5.918;2023-04-03T00:50:40;3.30;;;1.47;;
43519;SDS011;46848;51.980;5.918;2023-04-03T00:53:08;6.47;;;1.20;;
43519;SDS011;46848;51.980;5.918;2023-04-03T00:55:38;5.00;;;1.33;;
43519;SDS011;46848;51.980;5.918;2023-04-03T00:58:07;3.53;;;1.20;;
43519;SDS011;46848;51.980;5.918;2023-04-03T01:00:33;2.87;;;1.10;;
43519;SDS011;46848;51.980;5.918;2023-04-03T01:03:01;3.17;;;1.10;;
43519;SDS011;46848;51.980;5.918;2023-04-03T01:05:26;5.53;;;1.40;;
43519;SDS011;46848;51.980;5.918;2023-04-03T01:07:52;5.90;;;1.17;;
43519;SDS011;46848;51.980;5.918;2023-04-03T01:10:19;3.80;;;1.20;;
43519;SDS011;46848;51.980;5.918;2023-04-03T01:12:46;6.03;;;1.80;;
43519;SDS011;46848;51.980;5.918;2023-04-03T01:15:19;3.73;;;1.00;;
43519;SDS011;46848;51.980;5.918;2023-04-03T01:17:52;3.13;;;1.13;;
43519;SDS011;46848;51.980;5.918;2023-04-03T01:25:27;4.93;;;1.15;;
43519;SDS011;46848;51.980;5.918;2023-04-03T01:27:53;4.87;;;1.33;;
43519;SDS011;46848;51.980;5.918;2023-04-03T01:30:20;3.10;;;1.20;;
43519;SDS011;46848;51.980;5.918;2023-04-03T01:32:48;5.37;;;1.20;;
43519;SDS011;46848;51.980;5.918;2023-04-03T01:35:15;4.37;;;1.47;;
43519;SDS011;46848;51.980;5.918;2023-04-03T01:37:41;3.83;;;1.40;;
43519;SDS011;46848;51.980;5.918;2023-04-03T01:40:07;8.40;;;1.63;;
43519;SDS011;46848;51.980;5.918;2023-04-03T01:42:33;3.23;;;1.40;;
43519;SDS011;46848;51.980;5.918;2023-04-03T01:44:58;6.10;;;1.20;;
43519;SDS011;46848;51.980;5.918;2023-04-03T01:47:24;5.23;;;1.57;;
43519;SDS011;46848;51.980;5.918;2023-04-03T01:49:50;4.00;;;1.33;;
43519;SDS011;46848;51.980;5.918;2023-04-03T01:52:15;4.27;;;1.13;;
43519;SDS011;46848;51.980;5.918;2023-04-03T01:54:41;4.70;;;1.60;;
43519;SDS011;46848;51.980;5.918;2023-04-03T01:57:06;3.63;;;1.43;;
43519;SDS011;46848;51.980;5.918;2023-04-03T01:59:32;4.43;;;1.87;;
43519;SDS011;46848;51.980;5.918;2023-04-03T02:01:58;5.60;;;1.37;;
43519;SDS011;46848;51.980;5.918;2023-04-03T02:04:23;3.90;;;1.40;;
43519;SDS011;46848;51.980;5.918;2023-04-03T02:06:49;4.90;;;1.10;;
43519;SDS011;46848;51.980;5.918;2023-04-03T02:09:15;5.93;;;1.37;;
43519;SDS011;46848;51.980;5.918;2023-04-03T02:11:40;7.07;;;1.23;;
43519;SDS011;46848;51.980;5.918;2023-04-03T02:14:06;5.50;;;1.67;;
43519;SDS011;46848;51.980;5.918;2023-04-03T02:16:32;7.13;;;1.63;;
43519;SDS011;46848;51.980;5.918;2023-04-03T02:18:57;3.67;;;1.20;;
43519;SDS011;46848;51.980;5.918;2023-04-03T02:21:23;2.37;;;0.83;;
43519;SDS011;46848;51.980;5.918;2023-04-03T02:23:49;2.33;;;0.90;;
43519;SDS011;46848;51.980;5.918;2023-04-03T02:26:15;5.57;;;1.63;;
43519;SDS011;46848;51.980;5.918;2023-04-03T02:28:42;3.73;;;1.13;;
43519;SDS011;46848;51.980;5.918;2023-04-03T02:31:08;4.67;;;1.17;;
43519;SDS011;46848;51.980;5.918;2023-04-03T02:33:35;5.20;;;1.50;;
43519;SDS011;46848;51.980;5.918;2023-04-03T02:36:01;5.80;;;1.77;;
43519;SDS011;46848;51.980;5.918;2023-04-03T02:38:28;6.33;;;1.77;;
43519;SDS011;46848;51.980;5.918;2023-04-03T02:40:59;4.63;;;1.60;;
43519;SDS011;46848;51.980;5.918;2023-04-03T02:43:26;4.13;;;1.42;;
43519;SDS011;46848;51.980;5.918;2023-04-03T02:45:51;4.80;;;1.30;;
43519;SDS011;46848;51.980;5.918;2023-04-03T02:48:17;4.50;;;1.43;;
43519;SDS011;46848;51.980;5.918;2023-04-03T02:50:42;2.70;;;1.10;;
43519;SDS011;46848;51.980;5.918;2023-04-03T02:53:08;5.43;;;1.13;;
43519;SDS011;46848;51.980;5.918;2023-04-03T02:55:34;4.90;;;1.30;;
43519;SDS011;46848;51.980;5.918;2023-04-03T02:57:59;5.80;;;1.37;;
43519;SDS011;46848;51.980;5.918;2023-04-03T03:00:26;2.73;;;0.93;;
43519;SDS011;46848;51.980;5.918;2023-04-03T03:02:53;5.23;;;1.50;;
43519;SDS011;46848;51.980;5.918;2023-04-03T03:05:20;4.83;;;1.33;;
43519;SDS011;46848;51.980;5.918;2023-04-03T03:07:46;4.43;;;1.60;;
43519;SDS011;46848;51.980;5.918;2023-04-03T03:10:12;6.03;;;1.43;;
43519;SDS011;46848;51.980;5.918;2023-04-03T03:12:38;2.93;;;0.97;;
43519;SDS011;46848;51.980;5.918;2023-04-03T03:15:05;5.83;;;1.20;;
43519;SDS011;46848;51.980;5.918;2023-04-03T03:17:31;4.80;;;1.40;;
43519;SDS011;46848;51.980;5.918;2023-04-03T03:19:57;4.10;;;1.60;;
43519;SDS011;46848;51.980;5.918;2023-04-03T03:22:23;4.83;;;1.37;;
43519;SDS011;46848;51.980;5.918;2023-04-03T03:24:48;3.43;;;1.23;;
43519;SDS011;46848;51.980;5.918;2023-04-03T03:27:14;5.37;;;1.70;;
43519;SDS011;46848;51.980;5.918;2023-04-03T03:29:41;3.63;;;1.60;;
43519;SDS011;46848;51.980;5.918;2023-04-03T03:32:06;8.73;;;1.60;;
43519;SDS011;46848;51.980;5.918;2023-04-03T03:34:32;4.73;;;1.20;;
43519;SDS011;46848;51.980;5.918;2023-04-03T03:36:58;6.73;;;1.50;;
43519;SDS011;46848;51.980;5.918;2023-04-03T03:39:24;3.73;;;1.47;;
43519;SDS011;46848;51.980;5.918;2023-04-03T03:41:49;8.30;;;1.40;;
43519;SDS011;46848;51.980;5.918;2023-04-03T03:44:15;4.80;;;1.77;;
43519;SDS011;46848;51.980;5.918;2023-04-03T03:46:41;7.97;;;1.40;;
43519;SDS011;46848;51.980;5.918;2023-04-03T03:49:06;5.87;;;1.90;;
43519;SDS011;46848;51.980;5.918;2023-04-03T03:51:32;9.03;;;1.43;;
43519;SDS011;46848;51.980;5.918;2023-04-03T03:53:57;7.07;;;1.90;;
43519;SDS011;46848;51.980;5.918;2023-04-03T03:56:23;6.07;;;1.60;;
43519;SDS011;46848;51.980;5.918;2023-04-03T03:58:49;5.20;;;1.60;;
43519;SDS011;46848;51.980;5.918;2023-04-03T04:01:14;6.40;;;1.63;;
43519;SDS011;46848;51.980;5.918;2023-04-03T04:03:41;6.50;;;1.33;;
43519;SDS011;46848;51.980;5.918;2023-04-03T04:06:07;8.17;;;1.70;;
43519;SDS011;46848;51.980;5.918;2023-04-03T04:08:32;4.83;;;1.23;;
43519;SDS011;46848;51.980;5.918;2023-04-03T04:10:58;7.33;;;1.50;;
43519;SDS011;46848;51.980;5.918;2023-04-03T04:13:24;8.50;;;1.63;;
43519;SDS011;46848;51.980;5.918;2023-04-03T04:15:49;4.73;;;1.67;;
43519;SDS011;46848;51.980;5.918;2023-04-03T04:18:15;4.50;;;1.60;;
43519;SDS011;46848;51.980;5.918;2023-04-03T04:20:40;6.77;;;1.87;;
43519;SDS011;46848;51.980;5.918;2023-04-03T04:23:06;4.43;;;1.50;;
43519;SDS011;46848;51.980;5.918;2023-04-03T04:25:32;5.90;;;1.90;;
43519;SDS011;46848;51.980;5.918;2023-04-03T04:27:57;4.67;;;2.17;;
43519;SDS011;46848;51.980;5.918;2023-04-03T04:30:23;6.00;;;1.70;;
43519;SDS011;46848;51.980;5.918;2023-04-03T04:32:49;6.33;;;1.70;;
43519;SDS011;46848;51.980;5.918;2023-04-03T04:35:14;6.13;;;1.40;;
43519;SDS011;46848;51.980;5.918;2023-04-03T04:37:40;6.13;;;1.50;;
43519;SDS011;46848;51.980;5.918;2023-04-03T04:40:06;4.17;;;1.40;;
43519;SDS011;46848;51.980;5.918;2023-04-03T04:42:32;6.17;;;1.60;;
43519;SDS011;46848;51.980;5.918;2023-04-03T04:44:57;8.67;;;2.00;;
43519;SDS011;46848;51.980;5.918;2023-04-03T04:47:23;6.40;;;1.40;;
43519;SDS011;46848;51.980;5.918;2023-04-03T04:49:49;4.77;;;1.67;;
43519;SDS011;46848;51.980;5.918;2023-04-03T04:52:15;6.33;;;1.53;;
43519;SDS011;46848;51.980;5.918;2023-04-03T04:54:40;3.57;;;1.30;;
43519;SDS011;46848;51.980;5.918;2023-04-03T04:57:06;6.77;;;1.87;;
43519;SDS011;46848;51.980;5.918;2023-04-03T04:59:32;5.80;;;1.57;;
43519;SDS011;46848;51.980;5.918;2023-04-03T05:01:57;6.90;;;1.70;;
43519;SDS011;46848;51.980;5.918;2023-04-03T05:04:23;6.23;;;1.70;;
43519;SDS011;46848;51.980;5.918;2023-04-03T05:06:49;6.60;;;1.83;;
43519;SDS011;46848;51.980;5.918;2023-04-03T05:09:14;5.40;;;1.60;;
43519;SDS011;46848;51.980;5.918;2023-04-03T05:11:41;5.30;;;1.97;;
43519;SDS011;46848;51.980;5.918;2023-04-03T05:14:07;4.67;;;1.60;;
43519;SDS011;46848;51.980;5.918;2023-04-03T05:16:33;5.10;;;1.80;;
43519;SDS011;46848;51.980;5.918;2023-04-03T05:18:59;6.30;;;1.50;;
43519;SDS011;46848;51.980;5.918;2023-04-03T05:21:25;6.53;;;1.57;;
43519;SDS011;46848;51.980;5.918;2023-04-03T05:23:51;4.20;;;1.30;;
43519;SDS011;46848;51.980;5.918;2023-04-03T05:26:17;9.20;;;1.77;;
43519;SDS011;46848;51.980;5.918;2023-04-03T05:28:42;7.37;;;1.90;;
43519;SDS011;46848;51.980;5.918;2023-04-03T05:31:08;4.57;;;1.83;;
43519;SDS011;46848;51.980;5.918;2023-04-03T05:33:34;4.87;;;1.50;;
43519;SDS011;46848;51.980;5.918;2023-04-03T05:36:06;6.27;;;1.70;;
43519;SDS011;46848;51.980;5.918;2023-04-03T05:38:31;5.30;;;1.73;;
43519;SDS011;46848;51.980;5.918;2023-04-03T05:40:57;7.73;;;1.77;;
43519;SDS011;46848;51.980;5.918;2023-04-03T05:43:23;5.83;;;1.57;;
43519;SDS011;46848;51.980;5.918;2023-04-03T05:45:49;7.23;;;1.77;;
43519;SDS011;46848;51.980;5.918;2023-04-03T05:48:16;8.00;;;1.83;;
43519;SDS011;46848;51.980;5.918;2023-04-03T05:50:41;6.13;;;1.53;;
43519;SDS011;46848;51.980;5.918;2023-04-03T05:53:07;5.83;;;1.73;;
43519;SDS011;46848;51.980;5.918;2023-04-03T05:55:42;8.30;;;1.70;;
43519;SDS011;46848;51.980;5.918;2023-04-03T05:58:08;5.97;;;1.57;;
43519;SDS011;46848;51.980;5.918;2023-04-03T06:00:34;5.07;;;1.40;;
43519;SDS011;46848;51.980;5.918;2023-04-03T06:02:59;6.57;;;1.60;;
43519;SDS011;46848;51.980;5.918;2023-04-03T06:05:25;9.87;;;2.13;;
43519;SDS011;46848;51.980;5.918;2023-04-03T06:07:51;9.57;;;2.43;;
43519;SDS011;46848;51.980;5.918;2023-04-03T06:10:16;5.87;;;1.67;;
43519;SDS011;46848;51.980;5.918;2023-04-03T06:12:42;4.97;;;1.67;;
43519;SDS011;46848;51.980;5.918;2023-04-03T06:15:08;8.27;;;1.63;;
43519;SDS011;46848;51.980;5.918;2023-04-03T06:17:35;5.03;;;1.60;;
43519;SDS011;46848;51.980;5.918;2023-04-03T06:20:02;8.67;;;1.70;;
43519;SDS011;46848;51.980;5.918;2023-04-03T06:22:28;5.97;;;1.70;;
43519;SDS011;46848;51.980;5.918;2023-04-03T06:24:55;6.43;;;1.57;;
43519;SDS011;46848;51.980;5.918;2023-04-03T06:27:21;5.97;;;2.17;;
43519;SDS011;46848;51.980;5.918;2023-04-03T06:29:47;5.67;;;1.73;;
43519;SDS011;46848;51.980;5.918;2023-04-03T06:32:14;6.10;;;1.40;;
43519;SDS011;46848;51.980;5.918;2023-04-03T06:34:40;3.43;;;1.33;;
43519;SDS011;46848;51.980;5.918;2023-04-03T06:37:06;4.97;;;1.23;;
43519;SDS011;46848;51.980;5.918;2023-04-03T06:39:35;11.40;;;1.50;;
43519;SDS011;46848;51.980;5.918;2023-04-03T06:42:01;3.97;;;1.43;;
43519;SDS011;46848;51.980;5.918;2023-04-03T06:44:27;5.70;;;1.50;;
43519;SDS011;46848;51.980;5.918;2023-04-03T06:46:52;9.63;;;1.70;;
43519;SDS011;46848;51.980;5.918;2023-04-03T06:49:19;6.03;;;1.47;;
43519;SDS011;46848;51.980;5.918;2023-04-03T06:51:44;4.37;;;1.50;;
43519;SDS011;46848;51.980;5.918;2023-04-03T06:54:10;6.83;;;1.43;;
43519;SDS011;46848;51.980;5.918;2023-04-03T06:56:36;5.20;;;1.40;;
43519;SDS011;46848;51.980;5.918;2023-04-03T06:59:02;5.47;;;1.50;;
43519;SDS011;46848;51.980;5.918;2023-04-03T07:01:28;5.70;;;1.80;;
43519;SDS011;46848;51.980;5.918;2023-04-03T07:03:54;5.60;;;1.83;;
43519;SDS011;46848;51.980;5.918;2023-04-03T07:06:21;4.40;;;1.60;;
43519;SDS011;46848;51.980;5.918;2023-04-03T07:08:47;8.90;;;1.50;;
43519;SDS011;46848;51.980;5.918;2023-04-03T07:11:14;4.33;;;1.57;;
43519;SDS011;46848;51.980;5.918;2023-04-03T07:13:39;3.17;;;1.07;;
43519;SDS011;46848;51.980;5.918;2023-04-03T07:16:06;4.50;;;1.37;;
43519;SDS011;46848;51.980;5.918;2023-04-03T07:18:32;3.57;;;1.00;;
43519;SDS011;46848;51.980;5.918;2023-04-03T07:20:58;3.87;;;1.30;;
43519;SDS011;46848;51.980;5.918;2023-04-03T07:23:23;3.53;;;1.30;;
43519;SDS011;46848;51.980;5.918;2023-04-03T07:25:50;4.90;;;1.40;;
43519;SDS011;46848;51.980;5.918;2023-04-03T07:28:17;4.97;;;1.40;;
43519;SDS011;46848;51.980;5.918;2023-04-03T07:31:03;7.73;;;1.40;;
43519;SDS011;46848;51.980;5.918;2023-04-03T07:33:31;6.30;;;1.90;;
43519;SDS011;46848;51.980;5.918;2023-04-03T07:35:57;5.60;;;1.33;;
43519;SDS011;46848;51.980;5.918;2023-04-03T07:38:24;5.50;;;1.43;;
43519;SDS011;46848;51.980;5.918;2023-04-03T07:40:51;6.80;;;1.50;;
43519;SDS011;46848;51.980;5.918;2023-04-03T07:43:18;4.90;;;1.10;;
43519;SDS011;46848;51.980;5.918;2023-04-03T07:45:45;6.00;;;1.33;;
43519;SDS011;46848;51.980;5.918;2023-04-03T07:48:12;5.07;;;1.33;;
43519;SDS011;46848;51.980;5.918;2023-04-03T07:50:41;4.30;;;1.60;;
43519;SDS011;46848;51.980;5.918;2023-04-03T07:53:07;4.37;;;1.30;;
43519;SDS011;46848;51.980;5.918;2023-04-03T07:55:32;3.70;;;1.40;;
43519;SDS011;46848;51.980;5.918;2023-04-03T07:57:58;4.47;;;1.50;;
43519;SDS011;46848;51.980;5.918;2023-04-03T08:00:24;3.47;;;1.30;;
43519;SDS011;46848;51.980;5.918;2023-04-03T08:02:50;4.57;;;1.30;;
43519;SDS011;46848;51.980;5.918;2023-04-03T08:05:20;4.10;;;0.98;;
43519;SDS011;46848;51.980;5.918;2023-04-03T08:07:46;4.13;;;1.23;;
43519;SDS011;46848;51.980;5.918;2023-04-03T08:10:12;5.93;;;1.50;;
43519;SDS011;46848;51.980;5.918;2023-04-03T08:12:39;2.80;;;1.00;;
43519;SDS011;46848;51.980;5.918;2023-04-03T08:15:06;4.60;;;1.38;;
43519;SDS011;46848;51.980;5.918;2023-04-03T08:17:33;3.08;;;1.02;;
43519;SDS011;46848;51.980;5.918;2023-04-03T08:19:59;4.95;;;1.50;;
43519;SDS011;46848;51.980;5.918;2023-04-03T08:22:24;3.60;;;1.27;;
43519;SDS011;46848;51.980;5.918;2023-04-03T08:24:51;4.72;;;1.00;;
43519;SDS011;46848;51.980;5.918;2023-04-03T08:27:16;3.17;;;1.10;;
43519;SDS011;46848;51.980;5.918;2023-04-03T08:29:42;4.07;;;1.08;;
43519;SDS011;46848;51.980;5.918;2023-04-03T08:32:08;5.60;;;1.00;;
43519;SDS011;46848;51.980;5.918;2023-04-03T08:34:34;5.15;;;1.10;;
43519;SDS011;46848;51.980;5.918;2023-04-03T08:37:01;3.58;;;1.55;;
43519;SDS011;46848;51.980;5.918;2023-04-03T08:39:27;4.90;;;0.90;;
43519;SDS011;46848;51.980;5.918;2023-04-03T08:41:53;3.90;;;1.00;;
43519;SDS011;46848;51.980;5.918;2023-04-03T08:44:38;3.83;;;1.33;;
43519;SDS011;46848;51.980;5.918;2023-04-03T08:49:57;2.90;;;0.80;;
43519;SDS011;46848;51.980;5.918;2023-04-03T08:52:32;3.17;;;0.93;;
43519;SDS011;46848;51.980;5.918;2023-04-03T08:55:04;2.60;;;0.70;;
43519;SDS011;46848;51.980;5.918;2023-04-03T08:57:43;2.85;;;0.90;;
43519;SDS011;46848;51.980;5.918;2023-04-03T09:02:43;3.67;;;0.50;;
43519;SDS011;46848;51.980;5.918;2023-04-03T09:05:16;2.50;;;0.57;;
43519;SDS011;46848;51.980;5.918;2023-04-03T09:08:26;2.22;;;0.50;;
43519;SDS011;46848;51.980;5.918;2023-04-03T09:10:49;2.45;;;0.80;;
43519;SDS011;46848;51.980;5.918;2023-04-03T09:13:25;0.70;;;0.40;;
43519;SDS011;46848;51.980;5.918;2023-04-03T09:15:58;1.60;;;0.40;;
43519;SDS011;46848;51.980;5.918;2023-04-03T09:23:32;0.77;;;0.38;;
43519;SDS011;46848;51.980;5.918;2023-04-03T09:26:07;2.80;;;0.50;;
43519;SDS011;46848;51.980;5.918;2023-04-03T09:28:39;1.85;;;0.50;;
43519;SDS011;46848;51.980;5.918;2023-04-03T09:31:18;1.75;;;0.57;;
43519;SDS011;46848;51.980;5.918;2023-04-03T09:36:36;2.88;;;0.50;;
43519;SDS011;46848;51.980;5.918;2023-04-03T09:39:07;1.50;;;0.40;;
43519;SDS011;46848;51.980;5.918;2023-04-03T09:41:37;1.88;;;0.52;;
43519;SDS011;46848;51.980;5.918;2023-04-03T09:44:03;2.42;;;0.63;;
43519;SDS011;46848;51.980;5.918;2023-04-03T09:46:42;1.45;;;0.47;;
43519;SDS011;46848;51.980;5.918;2023-04-03T09:49:08;1.52;;;0.40;;
43519;SDS011;46848;51.980;5.918;2023-04-03T09:51:37;2.05;;;0.40;;
43519;SDS011;46848;51.980;5.918;2023-04-03T09:56:51;1.75;;;0.30;;
43519;SDS011;46848;51.980;5.918;2023-04-03T09:59:20;3.15;;;0.60;;
43519;SDS011;46848;51.980;5.918;2023-04-03T10:01:56;3.17;;;0.60;;
43519;SDS011;46848;51.980;5.918;2023-04-03T10:04:24;1.42;;;0.50;;
43519;SDS011;46848;51.980;5.918;2023-04-03T10:06:56;3.63;;;0.60;;
43519;SDS011;46848;51.980;5.918;2023-04-03T10:11:59;1.40;;;0.60;;
43519;SDS011;46848;51.980;5.918;2023-04-03T10:14:30;1.52;;;0.55;;
43519;SDS011;46848;51.980;5.918;2023-04-03T10:20:30;4.57;;;0.75;;
43519;SDS011;46848;51.980;5.918;2023-04-03T10:23:17;1.35;;;0.50;;
43519;SDS011;46848;51.980;5.918;2023-04-03T10:26:02;1.35;;;0.50;;
43519;SDS011;46848;51.980;5.918;2023-04-03T10:31:29;3.00;;;0.75;;
43519;SDS011;46848;51.980;5.918;2023-04-03T10:45:44;3.42;;;0.80;;
43519;SDS011;46848;51.980;5.918;2023-04-03T10:56:03;2.20;;;0.77;;
43519;SDS011;46848;51.980;5.918;2023-04-03T10:58:26;2.08;;;0.50;;
43519;SDS011;46848;51.980;5.918;2023-04-03T11:01:08;5.90;;;0.77;;
43519;SDS011;46848;51.980;5.918;2023-04-03T11:03:38;5.10;;;0.90;;
43519;SDS011;46848;51.980;5.918;2023-04-03T11:06:10;3.70;;;0.75;;
43519;SDS011;46848;51.980;5.918;2023-04-03T11:11:30;2.85;;;0.88;;
43519;SDS011;46848;51.980;5.918;2023-04-03T11:16:36;1.67;;;0.68;;
43519;SDS011;46848;51.980;5.918;2023-04-03T11:21:52;1.92;;;1.00;;
43519;SDS011;46848;51.980;5.918;2023-04-03T11:24:23;4.20;;;0.60;;
43519;SDS011;46848;51.980;5.918;2023-04-03T11:26:52;2.20;;;0.55;;
43519;SDS011;46848;51.980;5.918;2023-04-03T11:29:21;2.47;;;0.70;;
43519;SDS011;46848;51.980;5.918;2023-04-03T11:37:01;1.95;;;0.80;;
43519;SDS011;46848;51.980;5.918;2023-04-03T11:39:35;3.47;;;0.88;;
43519;SDS011;46848;51.980;5.918;2023-04-03T11:50:45;3.17;;;0.80;;
43519;SDS011;46848;51.980;5.918;2023-04-03T12:00:55;3.67;;;0.90;;
43519;SDS011;46848;51.980;5.918;2023-04-03T12:03:33;2.80;;;0.90;;
43519;SDS011;46848;51.980;5.918;2023-04-03T12:29:17;2.58;;;0.90;;
43519;SDS011;46848;51.980;5.918;2023-04-03T12:40:21;2.25;;;0.75;;
43519;SDS011;46848;51.980;5.918;2023-04-03T12:48:46;3.05;;;0.90;;
43519;SDS011;46848;51.980;5.918;2023-04-03T12:56:50;2.15;;;0.75;;
43519;SDS011;46848;51.980;5.918;2023-04-03T12:59:23;3.78;;;0.90;;
43519;SDS011;46848;51.980;5.918;2023-04-03T13:02:00;2.85;;;0.70;;
43519;SDS011;46848;51.980;5.918;2023-04-03T13:04:27;2.97;;;0.77;;
43519;SDS011;46848;51.980;5.918;2023-04-03T13:06:53;2.05;;;0.63;;
43519;SDS011;46848;51.980;5.918;2023-04-03T13:09:21;4.00;;;0.80;;
43519;SDS011;46848;51.980;5.918;2023-04-03T13:11:47;3.88;;;0.88;;
43519;SDS011;46848;51.980;5.918;2023-04-03T13:14:21;2.72;;;0.60;;
43519;SDS011;46848;51.980;5.918;2023-04-03T13:16:55;3.08;;;0.90;;
43519;SDS011;46848;51.980;5.918;2023-04-03T13:19:28;2.97;;;0.70;;
43519;SDS011;46848;51.980;5.918;2023-04-03T13:21:59;2.97;;;0.98;;
43519;SDS011;46848;51.980;5.918;2023-04-03T13:24:27;2.13;;;0.75;;
43519;SDS011;46848;51.980;5.918;2023-04-03T13:26:55;2.60;;;0.80;;
43519;SDS011;46848;51.980;5.918;2023-04-03T13:29:26;2.13;;;0.70;;
43519;SDS011;46848;51.980;5.918;2023-04-03T13:31:57;3.85;;;1.10;;
43519;SDS011;46848;51.980;5.918;2023-04-03T13:34:24;2.35;;;0.80;;
43519;SDS011;46848;51.980;5.918;2023-04-03T13:39:20;3.05;;;0.80;;
43519;SDS011;46848;51.980;5.918;2023-04-03T13:41:52;4.72;;;0.93;;
43519;SDS011;46848;51.980;5.918;2023-04-03T13:46:49;4.35;;;0.82;;
43519;SDS011;46848;51.980;5.918;2023-04-03T13:49:38;2.30;;;0.80;;
43519;SDS011;46848;51.980;5.918;2023-04-03T13:52:23;2.00;;;0.70;;
43519;SDS011;46848;51.980;5.918;2023-04-03T13:54:55;4.35;;;1.10;;
43519;SDS011;46848;51.980;5.918;2023-04-03T13:57:22;2.83;;;0.85;;
43519;SDS011;46848;51.980;5.918;2023-04-03T13:59:48;2.83;;;0.90;;
43519;SDS011;46848;51.980;5.918;2023-04-03T14:04:55;3.72;;;1.10;;
43519;SDS011;46848;51.980;5.918;2023-04-03T14:07:25;2.72;;;0.90;;
43519;SDS011;46848;51.980;5.918;2023-04-03T14:09:51;3.97;;;1.00;;
43519;SDS011;46848;51.980;5.918;2023-04-03T14:12:19;2.60;;;0.80;;
43519;SDS011;46848;51.980;5.918;2023-04-03T14:14:51;2.42;;;1.00;;
43519;SDS011;46848;51.980;5.918;2023-04-03T14:17:19;4.82;;;1.20;;
43519;SDS011;46848;51.980;5.918;2023-04-03T14:19:47;5.00;;;1.17;;
43519;SDS011;46848;51.980;5.918;2023-04-03T14:22:19;2.63;;;0.93;;
43519;SDS011;46848;51.980;5.918;2023-04-03T14:24:48;3.60;;;1.02;;
43519;SDS011;46848;51.980;5.918;2023-04-03T14:27:17;4.07;;;0.90;;
43519;SDS011;46848;51.980;5.918;2023-04-03T14:29:45;6.07;;;1.42;;
43519;SDS011;46848;51.980;5.918;2023-04-03T14:32:12;3.88;;;0.95;;
43519;SDS011;46848;51.980;5.918;2023-04-03T14:34:39;3.90;;;1.50;;
43519;SDS011;46848;51.980;5.918;2023-04-03T14:37:09;4.18;;;1.20;;
43519;SDS011;46848;51.980;5.918;2023-04-03T14:39:36;3.63;;;1.10;;
43519;SDS011;46848;51.980;5.918;2023-04-03T14:42:01;3.30;;;0.95;;
43519;SDS011;46848;51.980;5.918;2023-04-03T14:44:27;3.97;;;0.90;;
43519;SDS011;46848;51.980;5.918;2023-04-03T14:46:53;3.30;;;1.10;;
43519;SDS011;46848;51.980;5.918;2023-04-03T14:49:19;2.65;;;1.15;;
43519;SDS011;46848;51.980;5.918;2023-04-03T14:51:48;2.60;;;0.82;;
43519;SDS011;46848;51.980;5.918;2023-04-03T14:54:16;4.90;;;1.33;;
43519;SDS011;46848;51.980;5.918;2023-04-03T14:56:46;4.05;;;1.15;;
43519;SDS011;46848;51.980;5.918;2023-04-03T14:59:13;3.10;;;1.00;;
43519;SDS011;46848;51.980;5.918;2023-04-03T15:01:40;5.05;;;1.60;;
43519;SDS011;46848;51.980;5.918;2023-04-03T15:04:13;3.38;;;1.05;;
43519;SDS011;46848;51.980;5.918;2023-04-03T15:06:43;4.57;;;1.05;;
43519;SDS011;46848;51.980;5.918;2023-04-03T15:09:13;3.13;;;1.05;;
43519;SDS011;46848;51.980;5.918;2023-04-03T15:11:49;5.30;;;1.27;;
43519;SDS011;46848;51.980;5.918;2023-04-03T15:14:15;2.33;;;0.80;;
43519;SDS011;46848;51.980;5.918;2023-04-03T15:16:41;2.47;;;0.90;;
43519;SDS011;46848;51.980;5.918;2023-04-03T15:19:07;4.25;;;1.17;;
43519;SDS011;46848;51.980;5.918;2023-04-03T15:21:33;4.40;;;1.30;;
43519;SDS011;46848;51.980;5.918;2023-04-03T15:23:59;4.43;;;1.20;;
43519;SDS011;46848;51.980;5.918;2023-04-03T15:26:24;3.83;;;1.05;;
43519;SDS011;46848;51.980;5.918;2023-04-03T15:28:50;5.60;;;1.30;;
43519;SDS011;46848;51.980;5.918;2023-04-03T15:31:16;3.95;;;1.08;;
43519;SDS011;46848;51.980;5.918;2023-04-03T15:33:42;5.07;;;1.30;;
43519;SDS011;46848;51.980;5.918;2023-04-03T15:36:08;4.78;;;1.30;;
43519;SDS011;46848;51.980;5.918;2023-04-03T15:38:34;3.47;;;1.20;;
43519;SDS011;46848;51.980;5.918;2023-04-03T15:41:00;5.57;;;1.40;;
43519;SDS011;46848;51.980;5.918;2023-04-03T15:43:26;4.85;;;1.40;;
43519;SDS011;46848;51.980;5.918;2023-04-03T15:45:51;3.30;;;1.48;;
43519;SDS011;46848;51.980;5.918;2023-04-03T15:48:21;3.42;;;1.20;;
43519;SDS011;46848;51.980;5.918;2023-04-03T15:50:46;5.57;;;1.38;;
43519;SDS011;46848;51.980;5.918;2023-04-03T15:53:12;4.22;;;1.45;;
43519;SDS011;46848;51.980;5.918;2023-04-03T15:55:38;3.08;;;1.00;;
43519;SDS011;46848;51.980;5.918;2023-04-03T15:58:04;5.55;;;1.20;;
43519;SDS011;46848;51.980;5.918;2023-04-03T16:00:30;4.80;;;1.33;;
43519;SDS011;46848;51.980;5.918;2023-04-03T16:03:01;7.32;;;2.63;;
43519;SDS011;46848;51.980;5.918;2023-04-03T16:05:30;3.03;;;0.95;;
43519;SDS011;46848;51.980;5.918;2023-04-03T16:07:57;3.55;;;1.60;;
43519;SDS011;46848;51.980;5.918;2023-04-03T16:10:25;4.35;;;1.33;;
43519;SDS011;46848;51.980;5.918;2023-04-03T16:12:51;4.35;;;1.02;;
43519;SDS011;46848;51.980;5.918;2023-04-03T16:15:17;3.78;;;1.25;;
43519;SDS011;46848;51.980;5.918;2023-04-03T16:17:42;5.28;;;1.65;;
43519;SDS011;46848;51.980;5.918;2023-04-03T16:20:09;4.72;;;1.20;;
43519;SDS011;46848;51.980;5.918;2023-04-03T16:22:37;4.10;;;1.27;;
43519;SDS011;46848;51.980;5.918;2023-04-03T16:25:07;5.82;;;1.20;;
43519;SDS011;46848;51.980;5.918;2023-04-03T16:27:35;3.38;;;1.30;;
43519;SDS011;46848;51.980;5.918;2023-04-03T16:30:03;3.63;;;1.23;;
43519;SDS011;46848;51.980;5.918;2023-04-03T16:32:30;4.18;;;1.17;;
43519;SDS011;46848;51.980;5.918;2023-04-03T16:34:56;5.25;;;1.27;;
43519;SDS011;46848;51.980;5.918;2023-04-03T16:37:23;5.57;;;1.20;;
43519;SDS011;46848;51.980;5.918;2023-04-03T16:39:48;4.40;;;1.30;;
43519;SDS011;46848;51.980;5.918;2023-04-03T16:42:14;4.35;;;1.45;;
43519;SDS011;46848;51.980;5.918;2023-04-03T16:44:40;4.47;;;1.20;;
43519;SDS011;46848;51.980;5.918;2023-04-03T16:47:06;3.95;;;1.52;;
43519;SDS011;46848;51.980;5.918;2023-04-03T16:49:32;4.53;;;1.10;;
43519;SDS011;46848;51.980;5.918;2023-04-03T16:52:00;3.67;;;1.23;;
43519;SDS011;46848;51.980;5.918;2023-04-03T16:54:27;2.73;;;1.20;;
43519;SDS011;46848;51.980;5.918;2023-04-03T16:56:53;6.00;;;1.20;;
43519;SDS011;46848;51.980;5.918;2023-04-03T16:59:19;5.97;;;1.37;;
43519;SDS011;46848;51.980;5.918;2023-04-03T17:01:45;3.37;;;1.20;;